createdAt,value
2023-10-17T00:01:34.226Z,9.68
2023-10-17T00:04:15.589Z,9.48
2023-10-17T00:06:43.915Z,11.38
2023-10-17T00:09:15.293Z,13.40
2023-10-17T00:11:53.450Z,10.55
2023-10-17T00:14:21.685Z,13.00
2023-10-17T00:16:49.712Z,9.52
2023-10-17T00:19:19.772Z,12.82
2023-10-17T00:21:50.348Z,12.32
2023-10-17T00:24:20.330Z,11.65
2023-10-17T00:26:49.695Z,11.70
2023-10-17T00:29:17.772Z,9.15
2023-10-17T00:31:47.247Z,9.48
2023-10-17T00:34:17.310Z,11.43
2023-10-17T00:37:01.805Z,8.88
2023-10-17T00:39:31.966Z,8.88
2023-10-17T00:42:29.047Z,10.32
2023-10-17T00:44:57.803Z,10.88
2023-10-17T00:47:27.404Z,11.68
2023-10-17T00:49:56.393Z,9.65
2023-10-17T00:52:30.545Z,9.10
2023-10-17T00:55:00.482Z,11.68
2023-10-17T00:57:29.227Z,9.77
2023-10-17T00:59:58.273Z,10.07
2023-10-17T01:02:31.602Z,7.80
2023-10-17T01:05:01.670Z,11.35
2023-10-17T01:07:31.841Z,10.27
2023-10-17T01:10:11.295Z,9.00
2023-10-17T01:12:51.625Z,9.32
2023-10-17T01:15:23.678Z,10.30
2023-10-17T01:17:55.829Z,11.02
2023-10-17T01:20:24.551Z,7.97
2023-10-17T01:22:57.945Z,10.05
2023-10-17T01:25:29.967Z,10.43
2023-10-17T01:28:01.926Z,8.90
2023-10-17T01:30:31.806Z,14.90
2023-10-17T01:33:00.712Z,8.48
2023-10-17T01:35:29.076Z,8.15
2023-10-17T01:37:57.551Z,8.73
2023-10-17T01:40:28.644Z,9.27
2023-10-17T01:42:59.254Z,8.55
2023-10-17T01:45:28.085Z,9.07
2023-10-17T01:47:56.945Z,9.18
2023-10-17T01:50:26.157Z,7.25
2023-10-17T01:52:55.295Z,8.93
2023-10-17T01:55:26.276Z,6.65
2023-10-17T01:57:58.578Z,9.40
2023-10-17T02:00:28.810Z,7.07
2023-10-17T02:02:57.106Z,7.15
2023-10-17T02:05:26.380Z,8.15
2023-10-17T02:07:55.917Z,7.72
2023-10-17T02:10:26.308Z,8.45
2023-10-17T02:12:55.998Z,6.68
2023-10-17T02:15:25.400Z,6.00
2023-10-17T02:17:55.179Z,8.30
2023-10-17T02:20:30.677Z,8.85
2023-10-17T02:25:33.950Z,9.43
2023-10-17T02:28:04.329Z,6.95
2023-10-17T02:30:33.118Z,7.43
2023-10-17T02:33:02.894Z,7.70
2023-10-17T02:35:37.655Z,7.72
2023-10-17T02:38:07.127Z,6.80
2023-10-17T02:40:39.639Z,8.07
2023-10-17T02:43:13.761Z,9.30
2023-10-17T02:45:43.575Z,6.80
2023-10-17T02:48:24.844Z,6.45
2023-10-17T02:50:59.929Z,6.70
2023-10-17T02:53:31.607Z,6.88
2023-10-17T02:56:08.482Z,7.90
2023-10-17T02:58:38.233Z,7.97
2023-10-17T03:01:06.378Z,7.25
2023-10-17T03:03:37.221Z,7.05
2023-10-17T03:06:06.810Z,7.15
2023-10-17T03:08:37.972Z,7.85
2023-10-17T03:11:09.439Z,10.27
2023-10-17T03:13:42.441Z,5.95
2023-10-17T03:16:18.064Z,7.28
2023-10-17T03:18:51.867Z,7.93
2023-10-17T03:21:21.887Z,5.28
2023-10-17T03:23:50.425Z,5.00
2023-10-17T03:26:21.730Z,5.72
2023-10-17T03:28:51.671Z,6.20
2023-10-17T03:31:22.697Z,7.63
2023-10-17T03:33:53.575Z,8.40
2023-10-17T03:36:44.801Z,7.90
2023-10-17T03:39:23.121Z,7.80
2023-10-17T03:41:57.636Z,6.70
2023-10-17T03:44:31.411Z,6.13
2023-10-17T03:47:05.244Z,6.25
2023-10-17T03:49:39.282Z,6.03
2023-10-17T03:52:08.398Z,6.07
2023-10-17T03:54:40.749Z,7.03
2023-10-17T03:57:16.837Z,5.57
2023-10-17T03:59:53.020Z,5.93
2023-10-17T04:02:23.740Z,5.97
2023-10-17T04:04:55.170Z,8.57
2023-10-17T04:07:25.982Z,5.45
2023-10-17T04:10:17.693Z,7.40
2023-10-17T04:12:50.938Z,8.45
2023-10-17T04:15:20.948Z,6.63
2023-10-17T04:17:49.200Z,6.90
2023-10-17T04:20:19.238Z,4.95
2023-10-17T04:22:47.286Z,6.72
2023-10-17T04:25:35.483Z,7.68
2023-10-17T04:28:03.786Z,8.00
2023-10-17T04:30:36.743Z,6.78
2023-10-17T04:33:11.084Z,6.45
2023-10-17T04:35:43.928Z,9.55
2023-10-17T04:38:19.906Z,6.47
2023-10-17T04:40:55.395Z,10.52
2023-10-17T04:43:37.483Z,10.40
2023-10-17T04:46:09.795Z,8.73
2023-10-17T04:48:41.774Z,6.07
2023-10-17T04:51:21.397Z,6.85
2023-10-17T04:53:50.321Z,8.57
2023-10-17T04:56:24.200Z,8.52
2023-10-17T04:58:55.985Z,7.43
2023-10-17T05:01:40.971Z,7.50
2023-10-17T05:04:25.703Z,8.13
2023-10-17T05:07:16.580Z,5.80
2023-10-17T05:10:02.489Z,6.88
2023-10-17T05:12:48.077Z,8.02
2023-10-17T05:15:33.600Z,7.97
2023-10-17T05:18:20.874Z,7.82
2023-10-17T05:21:06.577Z,8.32
2023-10-17T05:23:52.226Z,6.70
2023-10-17T05:26:37.836Z,5.65
2023-10-17T05:29:23.486Z,7.75
2023-10-17T05:32:23.786Z,7.45
2023-10-17T05:35:11.016Z,8.13
2023-10-17T05:37:56.592Z,10.48
2023-10-17T05:40:43.807Z,7.95
2023-10-17T05:43:31.221Z,7.40
2023-10-17T05:46:17.820Z,10.85
2023-10-17T05:49:04.447Z,8.43
2023-10-17T05:51:52.403Z,8.05
2023-10-17T05:54:59.900Z,10.88
2023-10-17T05:57:44.001Z,10.00
2023-10-17T06:00:31.038Z,8.52
2023-10-17T06:03:16.549Z,8.63
2023-10-17T06:06:07.947Z,10.27
2023-10-17T06:08:56.992Z,8.38
2023-10-17T06:11:42.459Z,12.48
2023-10-17T06:14:27.920Z,10.00
2023-10-17T06:16:56.057Z,10.38
2023-10-17T06:19:25.762Z,14.85
2023-10-17T06:22:10.924Z,10.60
2023-10-17T06:25:03.459Z,11.93
2023-10-17T06:27:49.044Z,13.23
2023-10-17T06:30:36.493Z,13.95
2023-10-17T06:33:06.933Z,11.68
2023-10-17T06:35:38.677Z,10.02
2023-10-17T06:38:08.685Z,8.05
2023-10-17T06:40:39.104Z,26.92
2023-10-17T06:43:14.913Z,12.07
2023-10-17T06:45:56.106Z,10.93
2023-10-17T06:48:33.998Z,12.05
2023-10-17T06:51:20.211Z,14.18
2023-10-17T06:53:49.896Z,9.30
2023-10-17T06:56:19.578Z,11.52
2023-10-17T06:58:48.486Z,11.85
2023-10-17T07:01:27.667Z,10.45
2023-10-17T07:03:56.765Z,8.25
2023-10-17T07:06:26.985Z,12.35
2023-10-17T07:08:57.954Z,11.77
2023-10-17T07:11:28.848Z,9.07
2023-10-17T07:14:11.658Z,11.90
2023-10-17T07:16:58.638Z,9.65
2023-10-17T07:19:44.596Z,9.85
2023-10-17T07:22:16.105Z,12.73
2023-10-17T07:24:50.153Z,5.35
2023-10-17T07:27:28.370Z,8.50
2023-10-17T07:30:11.425Z,9.68
2023-10-17T07:32:50.718Z,13.15
2023-10-17T07:35:24.631Z,9.52
2023-10-17T07:37:56.817Z,10.55
2023-10-17T07:40:59.285Z,9.43
2023-10-17T07:43:32.265Z,9.02
2023-10-17T07:46:07.340Z,10.50
2023-10-17T07:48:36.289Z,9.00
2023-10-17T07:51:06.497Z,9.50
2023-10-17T07:53:34.697Z,9.75
2023-10-17T07:56:07.537Z,7.43
2023-10-17T07:58:43.368Z,8.50
2023-10-17T08:01:16.003Z,9.60
2023-10-17T08:03:52.470Z,8.43
2023-10-17T08:06:23.985Z,6.85
2023-10-17T08:08:53.453Z,8.25
2023-10-17T08:11:32.650Z,7.13
2023-10-17T08:14:07.460Z,10.23
2023-10-17T08:16:40.749Z,9.90
2023-10-17T08:19:16.005Z,11.55
2023-10-17T08:22:01.583Z,6.63
2023-10-17T08:24:34.996Z,11.18
2023-10-17T08:27:19.042Z,8.75
2023-10-17T08:29:50.716Z,8.25
2023-10-17T08:32:36.304Z,7.85
2023-10-17T08:35:10.864Z,6.85
2023-10-17T08:37:44.837Z,6.50
2023-10-17T08:40:33.512Z,9.55
2023-10-17T08:43:02.248Z,9.25
2023-10-17T08:45:38.213Z,7.13
2023-10-17T08:48:10.651Z,7.15
2023-10-17T08:50:41.052Z,6.05
2023-10-17T08:53:14.746Z,6.50
2023-10-17T08:55:43.856Z,5.85
2023-10-17T08:58:12.393Z,7.95
2023-10-17T09:00:56.470Z,9.02
2023-10-17T09:03:30.918Z,6.95
2023-10-17T09:06:07.914Z,6.70
2023-10-17T09:08:53.596Z,7.20
2023-10-17T09:11:31.838Z,8.23
2023-10-17T09:14:15.595Z,6.40
2023-10-17T09:16:52.197Z,5.65
2023-10-17T09:19:22.650Z,8.63
2023-10-17T09:21:51.410Z,6.05
2023-10-17T09:24:36.994Z,4.50
2023-10-17T09:27:11.167Z,7.10
2023-10-17T09:29:47.179Z,3.58
2023-10-17T09:32:34.580Z,6.15
2023-10-17T09:35:12.272Z,5.85
2023-10-17T09:37:43.169Z,8.68
2023-10-17T09:40:20.069Z,2.72
2023-10-17T09:42:48.780Z,5.05
2023-10-17T09:45:33.053Z,5.07
2023-10-17T09:48:08.089Z,5.75
2023-10-17T09:50:38.683Z,3.45
2023-10-17T09:53:17.960Z,5.93
2023-10-17T09:55:50.156Z,2.75
2023-10-17T09:58:23.270Z,2.80
2023-10-17T10:00:54.915Z,2.85
2023-10-17T10:03:29.416Z,2.28
2023-10-17T10:06:22.541Z,14.80
2023-10-17T10:08:51.141Z,3.40
2023-10-17T10:11:19.257Z,5.30
2023-10-17T10:14:05.982Z,5.68
2023-10-17T10:16:57.448Z,5.40
2023-10-17T10:20:01.052Z,4.07
2023-10-17T10:22:50.787Z,3.55
2023-10-17T10:25:20.997Z,3.28
2023-10-17T10:27:51.575Z,5.00
2023-10-17T10:30:38.796Z,3.88
2023-10-17T10:33:08.103Z,1.95
2023-10-17T10:35:38.182Z,3.58
2023-10-17T10:38:07.470Z,4.05
2023-10-17T10:40:41.228Z,3.47
2023-10-17T10:43:12.415Z,3.67
2023-10-17T10:45:49.118Z,3.65
2023-10-17T10:48:19.327Z,4.15
2023-10-17T10:50:50.805Z,5.72
2023-10-17T10:53:24.349Z,2.42
2023-10-17T10:56:01.100Z,9.80
2023-10-17T10:58:31.886Z,3.25
2023-10-17T11:01:01.628Z,2.78
2023-10-17T11:03:31.133Z,2.33
2023-10-17T11:06:04.279Z,3.55
2023-10-17T11:08:38.006Z,3.53
2023-10-17T11:11:07.233Z,3.75
2023-10-17T11:13:37.244Z,2.92
2023-10-17T11:16:07.384Z,4.65
2023-10-17T11:18:36.111Z,5.03
2023-10-17T11:21:06.468Z,17.08
2023-10-17T11:23:37.091Z,13.52
2023-10-17T11:26:25.005Z,3.05
2023-10-17T11:28:56.510Z,3.75
2023-10-17T11:31:25.973Z,2.63
2023-10-17T11:34:00.077Z,4.68
2023-10-17T11:36:36.886Z,4.70
2023-10-17T11:39:07.255Z,4.72
2023-10-17T11:41:47.516Z,4.82
2023-10-17T11:44:17.052Z,7.72
2023-10-17T11:46:56.908Z,3.65
2023-10-17T11:49:29.427Z,2.35
2023-10-17T11:52:05.281Z,1.95
2023-10-17T11:54:35.781Z,3.05
2023-10-17T11:57:15.611Z,2.92
2023-10-17T12:00:07.699Z,3.40
2023-10-17T12:02:37.541Z,2.53
2023-10-17T12:05:06.348Z,2.15
2023-10-17T12:07:43.644Z,3.58
2023-10-17T12:10:12.032Z,2.83
2023-10-17T12:12:40.786Z,3.25
2023-10-17T12:15:14.402Z,2.78
2023-10-17T12:17:42.873Z,2.35
2023-10-17T12:20:13.077Z,2.53
2023-10-17T12:22:42.820Z,6.30
2023-10-17T12:25:12.112Z,2.65
2023-10-17T12:27:41.039Z,5.88
2023-10-17T12:30:12.585Z,2.90
2023-10-17T12:32:40.798Z,3.00
2023-10-17T12:35:13.662Z,2.50
2023-10-17T12:37:45.492Z,6.25
2023-10-17T12:40:21.848Z,2.20
2023-10-17T12:42:50.853Z,7.47
2023-10-17T12:45:20.863Z,6.18
2023-10-17T12:47:49.950Z,2.83
2023-10-17T12:50:19.945Z,3.65
2023-10-17T12:52:53.357Z,3.17
2023-10-17T12:55:21.763Z,3.78
2023-10-17T12:57:49.957Z,1.77
2023-10-17T13:00:22.860Z,3.28
2023-10-17T13:02:53.819Z,2.42
2023-10-17T13:05:22.597Z,2.97
2023-10-17T13:07:53.497Z,2.85
2023-10-17T13:10:21.837Z,2.00
2023-10-17T13:12:50.033Z,3.50
2023-10-17T13:15:19.206Z,3.97
2023-10-17T13:17:48.435Z,4.43
2023-10-17T13:20:30.697Z,3.42
2023-10-17T13:23:05.626Z,2.45
2023-10-17T13:25:37.593Z,2.58
2023-10-17T13:28:06.314Z,1.88
2023-10-17T13:30:34.669Z,2.47
2023-10-17T13:33:03.121Z,3.25
2023-10-17T13:35:31.636Z,4.43
2023-10-17T13:38:00.652Z,2.10
2023-10-17T13:40:33.399Z,2.50
2023-10-17T13:43:02.898Z,1.67
2023-10-17T13:45:31.128Z,4.38
2023-10-17T13:47:59.428Z,2.83
2023-10-17T13:50:27.647Z,2.75
2023-10-17T13:53:01.054Z,3.13
2023-10-17T13:55:31.268Z,3.00
2023-10-17T13:58:02.461Z,2.08
2023-10-17T14:00:44.255Z,2.63
2023-10-17T14:03:13.984Z,3.53
2023-10-17T14:05:44.550Z,14.25
2023-10-17T14:08:14.626Z,5.80
2023-10-17T14:10:44.914Z,3.28
2023-10-17T14:13:13.818Z,4.18
2023-10-17T14:15:42.133Z,3.17
2023-10-17T14:18:15.953Z,2.30
2023-10-17T14:21:05.649Z,2.58
2023-10-17T14:23:46.376Z,7.05
2023-10-17T14:26:16.658Z,3.63
2023-10-17T14:28:45.178Z,2.45
2023-10-17T14:31:13.389Z,1.92
2023-10-17T14:33:42.289Z,2.45
2023-10-17T14:36:10.775Z,2.20
2023-10-17T14:38:39.008Z,2.78
2023-10-17T14:41:10.628Z,1.90
2023-10-17T14:43:44.877Z,3.03
2023-10-17T14:46:13.284Z,5.40
2023-10-17T14:48:42.690Z,4.97
2023-10-17T14:51:13.052Z,4.72
2023-10-17T14:53:50.920Z,4.25
2023-10-17T14:56:20.609Z,6.00
2023-10-17T14:58:50.941Z,6.55
2023-10-17T15:01:19.609Z,8.00
2023-10-17T15:03:48.749Z,4.88
2023-10-17T15:06:17.119Z,5.40
2023-10-17T15:08:45.397Z,4.70
2023-10-17T15:11:13.821Z,6.53
2023-10-17T15:13:42.055Z,5.82
2023-10-17T15:16:19.989Z,7.03
2023-10-17T15:18:49.431Z,4.53
2023-10-17T15:21:20.014Z,3.53
2023-10-17T15:23:48.244Z,5.40
2023-10-17T15:26:16.504Z,4.20
2023-10-17T15:28:46.234Z,5.20
2023-10-17T15:31:16.569Z,5.93
2023-10-17T15:33:46.675Z,6.57
2023-10-17T15:36:16.001Z,5.22
2023-10-17T15:38:46.642Z,5.22
2023-10-17T15:41:17.263Z,4.63
2023-10-17T15:43:46.724Z,4.57
2023-10-17T15:46:16.780Z,5.40
2023-10-17T15:48:46.484Z,4.38
2023-10-17T15:51:21.318Z,5.53
2023-10-17T15:53:49.732Z,5.72
2023-10-17T15:56:17.855Z,3.75
2023-10-17T15:58:47.212Z,4.68
2023-10-17T16:01:15.467Z,5.13
2023-10-17T16:03:47.643Z,4.22
2023-10-17T16:06:19.317Z,3.55
2023-10-17T16:08:50.593Z,4.85
2023-10-17T16:11:21.064Z,4.68
2023-10-17T16:13:49.296Z,5.82
2023-10-17T16:16:17.728Z,4.35
2023-10-17T16:18:46.976Z,4.57
2023-10-17T16:21:16.772Z,8.73
2023-10-17T16:23:48.816Z,9.48
2023-10-17T16:26:18.577Z,9.70
2023-10-17T16:28:47.233Z,10.32
2023-10-17T16:31:17.065Z,12.38
2023-10-17T16:33:45.620Z,13.00
2023-10-17T16:36:13.719Z,12.23
2023-10-17T16:38:47.463Z,13.38
2023-10-17T16:41:15.875Z,13.25
2023-10-17T16:43:43.990Z,15.70
2023-10-17T16:46:12.965Z,15.25
2023-10-17T16:48:41.463Z,16.40
2023-10-17T16:51:09.604Z,16.00
2023-10-17T16:53:39.742Z,14.82
2023-10-17T16:56:10.748Z,12.45
2023-10-17T16:58:39.437Z,12.23
2023-10-17T17:01:08.352Z,11.82
2023-10-17T17:03:37.053Z,10.73
2023-10-17T17:06:07.645Z,10.70
2023-10-17T17:08:36.921Z,10.52
2023-10-17T17:11:06.184Z,14.30
2023-10-17T17:13:36.283Z,8.35
2023-10-17T17:16:05.040Z,7.53
2023-10-17T17:21:08.585Z,10.43
2023-10-17T17:23:36.908Z,6.18
2023-10-17T17:26:06.532Z,5.82
2023-10-17T17:28:36.583Z,7.35
2023-10-17T17:31:07.732Z,6.43
2023-10-17T17:33:35.959Z,6.30
2023-10-17T17:36:06.478Z,7.22
2023-10-17T17:38:36.392Z,9.82
2023-10-17T17:41:06.712Z,9.93
2023-10-17T17:43:36.325Z,8.95
2023-10-17T17:46:06.159Z,6.20
2023-10-17T17:48:34.594Z,6.35
2023-10-17T17:51:03.577Z,6.25
2023-10-17T17:53:31.991Z,5.55
2023-10-17T17:56:00.184Z,4.88
2023-10-17T17:58:29.820Z,8.68
2023-10-17T18:00:59.417Z,7.13
2023-10-17T18:03:28.915Z,7.05
2023-10-17T18:05:57.183Z,6.88
2023-10-17T18:08:26.225Z,7.07
2023-10-17T18:10:54.525Z,7.68
2023-10-17T18:13:23.094Z,9.68
2023-10-17T18:15:54.923Z,7.78
2023-10-17T18:18:24.792Z,10.02
2023-10-17T18:21:03.535Z,10.13
2023-10-17T18:23:32.436Z,8.98
2023-10-17T18:26:00.935Z,9.32
2023-10-17T18:28:29.488Z,7.47
2023-10-17T18:31:08.638Z,8.75
2023-10-17T18:33:38.306Z,9.55
2023-10-17T18:36:06.665Z,7.80
2023-10-17T18:38:34.857Z,11.35
2023-10-17T18:41:03.442Z,8.60
2023-10-17T18:43:31.521Z,8.85
2023-10-17T18:45:59.993Z,8.50
2023-10-17T18:48:28.355Z,7.45
2023-10-17T18:51:02.614Z,9.85
2023-10-17T18:53:32.958Z,7.75
2023-10-17T18:56:01.957Z,8.43
2023-10-17T18:58:30.395Z,7.57
2023-10-17T19:01:13.107Z,8.88
2023-10-17T19:03:43.484Z,8.40
2023-10-17T19:06:14.344Z,10.18
2023-10-17T19:08:43.491Z,10.23
2023-10-17T19:11:13.265Z,8.15
2023-10-17T19:13:42.488Z,8.32
2023-10-17T19:16:15.792Z,8.30
2023-10-17T19:18:44.349Z,8.20
2023-10-17T19:21:15.706Z,7.28
2023-10-17T19:23:50.217Z,7.88
2023-10-17T19:26:20.232Z,8.02
2023-10-17T19:28:49.213Z,5.47
2023-10-17T19:31:18.307Z,7.78
2023-10-17T19:33:46.508Z,8.40
2023-10-17T19:36:16.501Z,9.18
2023-10-17T19:38:44.690Z,25.30
2023-10-17T19:41:13.190Z,13.38
2023-10-17T19:43:41.933Z,7.65
2023-10-17T19:46:12.024Z,9.75
2023-10-17T19:48:40.376Z,7.30
2023-10-17T19:51:08.644Z,8.65
2023-10-17T19:53:39.668Z,9.57
2023-10-17T19:56:08.676Z,9.00
2023-10-17T19:58:37.002Z,9.65
2023-10-17T20:01:08.620Z,8.95
2023-10-17T20:03:37.060Z,9.18
2023-10-17T20:06:06.826Z,9.10
2023-10-17T20:08:35.159Z,13.80
2023-10-17T20:11:06.078Z,10.20
2023-10-17T20:13:34.225Z,9.15
2023-10-17T20:16:02.558Z,10.27
2023-10-17T20:18:31.847Z,12.25
2023-10-17T20:20:59.959Z,10.63
2023-10-17T20:23:28.058Z,8.65
2023-10-17T20:25:56.331Z,10.70
2023-10-17T20:28:25.806Z,8.73
2023-10-17T20:30:53.933Z,7.25
2023-10-17T20:33:22.405Z,7.55
2023-10-17T20:35:50.780Z,8.48
2023-10-17T20:38:19.043Z,7.15
2023-10-17T20:40:47.543Z,8.23
2023-10-17T20:43:15.826Z,6.80
2023-10-17T20:45:46.306Z,7.35
2023-10-17T20:48:14.584Z,6.20
2023-10-17T20:50:42.890Z,4.75
2023-10-17T20:53:11.218Z,7.63
2023-10-17T20:55:39.362Z,9.93
2023-10-17T20:58:07.625Z,5.95
2023-10-17T21:00:36.933Z,9.02
2023-10-17T21:03:11.194Z,8.15
2023-10-17T21:05:39.557Z,8.02
2023-10-17T21:08:08.375Z,6.97
2023-10-17T21:10:41.992Z,7.43
2023-10-17T21:13:11.336Z,7.32
2023-10-17T21:15:39.889Z,9.15
2023-10-17T21:18:12.308Z,9.82
2023-10-17T21:20:40.606Z,8.25
2023-10-17T21:23:08.777Z,8.68
2023-10-17T21:25:38.531Z,11.18
2023-10-17T21:28:08.803Z,9.05
2023-10-17T21:30:38.723Z,11.65
2023-10-17T21:33:07.164Z,8.32
2023-10-17T21:35:38.327Z,10.90
2023-10-17T21:38:06.736Z,7.55
2023-10-17T21:40:35.469Z,7.93
2023-10-17T21:43:04.032Z,9.82
2023-10-17T21:45:32.546Z,9.75
2023-10-17T21:48:00.825Z,5.97
2023-10-17T21:50:29.060Z,7.53
2023-10-17T21:52:59.151Z,11.38
2023-10-17T21:55:27.379Z,9.25
2023-10-17T21:57:55.916Z,8.68
2023-10-17T22:00:28.868Z,7.38
2023-10-17T22:02:57.805Z,8.48
2023-10-17T22:05:26.597Z,7.68
2023-10-17T22:07:56.925Z,7.22
2023-10-17T22:10:27.217Z,7.10
2023-10-17T22:12:55.489Z,8.13
2023-10-17T22:15:24.146Z,10.00
2023-10-17T22:17:52.315Z,6.45
2023-10-17T22:20:20.641Z,6.75
2023-10-17T22:22:49.039Z,6.00
2023-10-17T22:25:18.950Z,7.57
2023-10-17T22:27:49.177Z,6.53
2023-10-17T22:30:18.082Z,6.43
2023-10-17T22:32:46.359Z,8.75
2023-10-17T22:35:14.883Z,6.10
2023-10-17T22:37:43.051Z,5.30
2023-10-17T22:40:14.111Z,6.55
2023-10-17T22:42:42.634Z,6.90
2023-10-17T22:45:13.028Z,9.90
2023-10-17T22:47:41.828Z,6.40
2023-10-17T22:50:11.586Z,8.23
2023-10-17T22:52:40.039Z,6.25
2023-10-17T22:55:11.060Z,6.35
2023-10-17T22:57:42.634Z,5.93
2023-10-17T23:00:15.625Z,7.18
2023-10-17T23:02:47.561Z,5.68
2023-10-17T23:05:17.237Z,6.68
2023-10-17T23:07:46.363Z,4.85
2023-10-17T23:10:16.576Z,5.90
2023-10-17T23:12:45.468Z,7.32
2023-10-17T23:15:15.750Z,10.15
2023-10-17T23:17:46.720Z,13.35
2023-10-17T23:20:16.513Z,8.68
2023-10-17T23:22:45.404Z,12.73
2023-10-17T23:25:14.248Z,10.23
2023-10-17T23:27:43.035Z,10.10
2023-10-17T23:30:13.134Z,9.93
2023-10-17T23:32:43.018Z,8.77
2023-10-17T23:35:11.392Z,7.00
2023-10-17T23:37:40.660Z,8.73
2023-10-17T23:40:11.102Z,7.78
2023-10-17T23:42:39.645Z,9.23
2023-10-17T23:45:08.828Z,7.47
2023-10-17T23:47:38.105Z,7.40
2023-10-17T23:50:16.740Z,7.90
2023-10-17T23:52:45.666Z,6.82
2023-10-17T23:55:15.492Z,5.28
2023-10-17T23:57:47.872Z,7.32
